北京 の空港の天気 - METARとTAF

北京首都国際空港 ( ZBAA / PEK ) - 中華人民共和国 北京市
飛行場実況気象(Metar)
観測時間09/26 20:30 CST (09/26 12:30 UTC)
風向・風速東 2m/s
視程10km以上
天気現象
なし
気温14℃
湿度82%
気圧1017hPa
METARZBAA 261230Z 08002MPS CAVOK 14/11 Q1017 NOSIG
過去の天気等 Google飛行場航空写真 Wunderground天気予報

過去48時間のMETAR

飛行場予報(TAF)
発表時間: 9/26 17:20 CST (9/26 09:20 UTC)
予報対象時間: 26日20時 CST ~ 27日20時 CST
風向・風速北 4m/s
視程10km以上
なし
TAF ZBAA 260920Z 2612/2712 36004MPS CAVOK TX24/2707Z TN14/2621Z